TNCMTXKF

Guest
Details From TNCM - St Maarten - Princess Juliana Intl
To TXKF - Bermuda Intl
Flight Number -
Tags Generated
Created
Modified
Stats Distance 865 nm / 1,602 km
Max Altitude 0 ft / 0 m
Waypoints 3
Social Downloads 3
Likes 0
Share VATSIM

Download

Looking for another format? Having issues loading an existing format? Contact us
Advertisement - Login to hide

Notes

Generated

Route

TNCM BDA TXKF

ID Type Via Altitude Latitude Longitude Leg Dist Tot Dist Heading (true) Name
O TNCM APT - 0 ft / 0 m 18.03937˚ -63.11961˚ - 0 nm - -
BDA VOR - 0 ft / 0 m 32.36436˚ -64.68958˚ 864 nm 864 nm 355° / 354° BERMUDA VOR-DME
O TXKF APT - 0 ft / 0 m 32.36669˚ -64.69410˚ 0 nm 864 nm 301° / 301° -

Altitude Profile

Advertisement - Login to hide

Weather


0- 5 10 15 20 25 30 35+ Temperature / ° C

Clouds and Precipitation
Forecast for 2017-12-18 18:00 UTC. Updated 2 hours ago

Ground ~20,000 ft ~40,000 ft Winds

TNCM

Details ICAO TNCM (SXM)
Name St Maarten - Princess Juliana Intl
Region Caribbean Netherlands, Aruba, Curaçao, Sint Maarten
Timezone Unknown (UTC+0.0)
Stats Elevation 12 ft / 4 m (AMSL)
Location 18.040889° -63.108974°
Runways 1
Magnetic Variation 14.325° W

METAR

TNCM 181700Z 08012KT 040V120 9999 SCT022TCU 29/22 Q1017 A3003 NOSIG RMK TCU TO E LTE RW S SW

Decode

TAF

TAF TNCM 181137Z 1812/1912 05012KT P6SM -SHRA FEW016 SCT040 FM181430 07017KT P6SM VCSH SCT020 FM182300 07010KT P6SM SCT018

Decode

Departure Runways

ID Width Length Bearing (true) Bearing (mag) Surface Threshold Offset Overrun Length
10 148 ft / 45 m 7,464 ft / 2,275 m 81.43° 95.76° Asphalt 0 ft / 0 m 151 ft / 46 m
28 148 ft / 45 m 7,464 ft / 2,275 m 261.44° 275.77° Asphalt 397 ft / 121 m 0 ft / 0 m

TXKF

Details ICAO TXKF (BDA)
Name Bermuda Intl
Region Bermuda
Timezone Unknown (UTC+0.0)
Stats Elevation 12 ft / 4 m (AMSL)
Location 32.364038° -64.678684°
Runways 1
Magnetic Variation 14.784° W

METAR

TXKF 181655Z 25010KT 9999 SCT058 SCT130 BKN300 22/12 Q1022

Decode

TAF

TAF TXKF 181131Z 1812/1912 27007KT 9999 FEW040 BKN150 BECMG 1816/1818 25012KT BECMG 1901/1903 25022KT SCT018 BKN030 BECMG 1910/1912 -SHRA BKN018

Decode

Destination Runways

ID Width Length Bearing (true) Bearing (mag) Surface Threshold Offset Overrun Length
12 150 ft / 46 m 9,701 ft / 2,957 m 101.50° 116.28° Asphalt 0 ft / 0 m 553 ft / 169 m
30 150 ft / 46 m 9,701 ft / 2,957 m 281.52° 296.30° Asphalt 0 ft / 0 m 207 ft / 63 m

Approach Navaids

Runway Type Ident Frequency Range Bearing (true) Bearing (mag) Slope Elevation
30 Localiser IBDA 109.90 MHz 18 nm / 33 km 281.50° 296.29° - 11 ft / 3 m (AMSL)
30 Glidescope IBDA 109.90 MHz 10 nm / 19 km 281.51° 296.29° 3.00° 11 ft / 3 m (AMSL)

Popular Alternatives